createdAt,value
2022-12-23T00:00:34.993Z,215.51
2022-12-23T00:01:38.700Z,199.55
2022-12-23T00:02:46.178Z,197.21
2022-12-23T00:03:49.753Z,193.08
2022-12-23T00:04:55.891Z,198.78
2022-12-23T00:06:00.365Z,199.63
2022-12-23T00:07:06.523Z,197.90
2022-12-23T00:08:10.767Z,205.67
2022-12-23T00:09:17.245Z,197.79
2022-12-23T00:10:23.585Z,197.29
2022-12-23T00:11:31.705Z,197.36
2022-12-23T00:12:50.049Z,216.69
2022-12-23T00:14:16.277Z,213.87
2022-12-23T00:15:23.744Z,217.97
2022-12-23T00:16:30.180Z,209.66
2022-12-23T00:17:34.655Z,219.42
2022-12-23T00:18:41.701Z,229.68
2022-12-23T00:19:46.127Z,221.58
2022-12-23T00:20:52.071Z,220.41
2022-12-23T00:21:55.513Z,223.59
2022-12-23T00:23:10.348Z,224.67
2022-12-23T00:24:13.757Z,238.85
2022-12-23T00:25:20.871Z,237.09
2022-12-23T00:26:31.264Z,232.14
2022-12-23T00:27:37.696Z,250.75
2022-12-23T00:28:44.002Z,248.27
2022-12-23T00:29:47.297Z,248.04
2022-12-23T00:30:57.708Z,263.78
2022-12-23T00:32:01.192Z,257.31
2022-12-23T00:33:07.840Z,250.92
2022-12-23T00:34:12.699Z,244.74
2022-12-23T00:35:18.885Z,236.26
2022-12-23T00:36:30.198Z,253.05
2022-12-23T00:37:33.722Z,253.76
2022-12-23T00:38:52.243Z,250.47
2022-12-23T00:40:10.510Z,254.06
2022-12-23T00:41:32.563Z,267.83
2022-12-23T00:42:57.261Z,277.90
2022-12-23T00:44:01.092Z,292.83
2022-12-23T00:45:18.302Z,285.37
2022-12-23T00:46:24.324Z,285.19
2022-12-23T00:47:42.632Z,289.53
2022-12-23T00:49:01.737Z,311.59
2022-12-23T00:50:06.283Z,315.49
2022-12-23T00:51:12.248Z,316.50
2022-12-23T00:52:16.332Z,312.51
2022-12-23T00:53:23.425Z,303.30
2022-12-23T00:54:27.700Z,290.40
2022-12-23T00:55:34.025Z,273.94
2022-12-23T00:56:37.549Z,263.14
2022-12-23T00:57:46.127Z,264.41
2022-12-23T00:58:49.449Z,272.06
2022-12-23T00:59:56.397Z,268.40
2022-12-23T01:01:14.779Z,259.80
2022-12-23T01:02:33.239Z,240.80
2022-12-23T01:03:51.680Z,232.76
2022-12-23T01:05:25.771Z,236.33
2022-12-23T01:06:31.787Z,232.45
2022-12-23T01:07:35.252Z,226.89
2022-12-23T01:08:41.373Z,235.08
2022-12-23T01:09:45.048Z,236.39
2022-12-23T01:10:51.871Z,232.90
2022-12-23T01:11:56.003Z,233.55
2022-12-23T01:13:04.738Z,226.74
2022-12-23T01:14:09.573Z,237.81
2022-12-23T01:15:15.523Z,252.06
2022-12-23T01:16:19.820Z,254.79
2022-12-23T01:17:25.890Z,253.12
2022-12-23T01:18:29.614Z,255.66
2022-12-23T01:19:35.673Z,249.99
2022-12-23T01:20:39.153Z,253.35
2022-12-23T01:21:46.076Z,255.79
2022-12-23T01:22:49.954Z,257.74
2022-12-23T01:23:55.946Z,251.97
2022-12-23T01:24:59.362Z,264.39
2022-12-23T01:26:09.128Z,268.75
2022-12-23T01:27:13.359Z,276.44
2022-12-23T01:28:22.005Z,277.20
2022-12-23T01:29:25.781Z,278.89
2022-12-23T01:30:31.694Z,278.54
2022-12-23T01:31:35.409Z,274.20
2022-12-23T01:32:42.360Z,276.13
2022-12-23T01:33:46.303Z,282.33
2022-12-23T01:34:52.258Z,274.67
2022-12-23T01:36:00.943Z,264.77
2022-12-23T01:37:06.952Z,270.14
2022-12-23T01:38:11.282Z,255.83
2022-12-23T01:39:17.307Z,253.80
2022-12-23T01:40:20.874Z,273.13
2022-12-23T01:41:43.028Z,264.79
2022-12-23T01:42:49.085Z,271.86
2022-12-23T01:43:55.872Z,273.57
2022-12-23T01:45:02.332Z,283.64
2022-12-23T01:46:08.498Z,282.28
2022-12-23T01:47:20.551Z,282.78
2022-12-23T01:48:30.521Z,299.06
2022-12-23T01:49:34.828Z,303.62
2022-12-23T01:50:48.170Z,303.14
2022-12-23T01:51:51.946Z,301.00
2022-12-23T01:53:08.696Z,303.14
2022-12-23T01:54:12.413Z,298.44
2022-12-23T01:55:26.942Z,311.22
2022-12-23T01:56:38.178Z,313.82
2022-12-23T01:57:48.117Z,312.78
2022-12-23T01:59:02.477Z,311.00
2022-12-23T02:00:23.769Z,312.76
2022-12-23T02:01:45.042Z,311.94
2022-12-23T02:03:08.023Z,305.62
2022-12-23T02:04:21.961Z,296.47
2022-12-23T02:05:25.696Z,292.28
2022-12-23T02:06:52.028Z,286.65
2022-12-23T02:08:11.683Z,291.09
2022-12-23T02:09:21.184Z,282.47
2022-12-23T02:10:44.521Z,292.29
2022-12-23T02:12:32.392Z,275.15
2022-12-23T02:14:06.870Z,269.81
2022-12-23T02:15:49.418Z,271.52
2022-12-23T02:17:12.634Z,271.53
2022-12-23T02:18:44.899Z,273.92
2022-12-23T02:20:39.322Z,265.74
2022-12-23T02:22:18.095Z,265.36
2022-12-23T02:24:27.702Z,262.69
2022-12-23T02:26:11.432Z,266.46
2022-12-23T02:27:30.127Z,254.95
2022-12-23T02:29:19.555Z,252.72
2022-12-23T02:30:51.531Z,249.23
2022-12-23T02:32:08.972Z,243.71
2022-12-23T02:33:39.635Z,235.38
2022-12-23T02:34:56.210Z,243.38
2022-12-23T02:36:25.495Z,248.99
2022-12-23T02:37:42.982Z,242.95
2022-12-23T02:39:05.024Z,245.85
2022-12-23T02:40:24.860Z,248.97
2022-12-23T02:41:45.655Z,240.62
2022-12-23T02:43:02.917Z,246.92
2022-12-23T02:44:23.829Z,245.74
2022-12-23T02:45:41.652Z,240.88
2022-12-23T02:46:57.565Z,241.93
2022-12-23T02:48:09.380Z,231.27
2022-12-23T02:49:24.454Z,233.80
2022-12-23T02:50:37.407Z,235.04
2022-12-23T02:51:53.254Z,238.35
2022-12-23T02:53:06.597Z,237.02
2022-12-23T02:54:20.263Z,242.97
2022-12-23T02:55:35.640Z,248.42
2022-12-23T02:56:50.276Z,249.35
2022-12-23T02:58:00.461Z,252.99
2022-12-23T02:59:16.124Z,250.02
2022-12-23T03:00:21.471Z,242.99
2022-12-23T03:01:36.117Z,240.43
2022-12-23T03:02:45.145Z,233.66
2022-12-23T03:03:54.797Z,228.88
2022-12-23T03:05:00.851Z,234.16
2022-12-23T03:06:24.374Z,225.03
2022-12-23T03:07:43.207Z,232.84
2022-12-23T03:08:50.461Z,245.89
2022-12-23T03:10:08.917Z,248.36
2022-12-23T03:11:19.153Z,234.11
2022-12-23T03:12:42.148Z,235.82
2022-12-23T03:14:23.749Z,230.50
2022-12-23T03:15:47.505Z,234.49
2022-12-23T03:17:08.838Z,227.88
2022-12-23T03:18:34.158Z,231.10
2022-12-23T03:19:56.678Z,227.59
2022-12-23T03:21:13.484Z,231.15
2022-12-23T03:22:32.573Z,232.65
2022-12-23T03:23:55.196Z,222.88
2022-12-23T03:25:17.014Z,232.25
2022-12-23T03:26:28.497Z,218.74
2022-12-23T03:27:43.364Z,216.50
2022-12-23T03:28:54.751Z,216.06
2022-12-23T03:30:10.063Z,211.05
2022-12-23T03:31:27.761Z,207.71
2022-12-23T03:32:40.524Z,211.49
2022-12-23T03:33:59.389Z,222.53
2022-12-23T03:35:10.756Z,218.71
2022-12-23T03:36:27.848Z,221.46
2022-12-23T03:37:39.253Z,213.89
2022-12-23T03:38:48.876Z,219.80
2022-12-23T03:40:04.110Z,222.34
2022-12-23T03:41:20.070Z,225.52
2022-12-23T03:42:32.175Z,221.57
2022-12-23T03:43:51.065Z,214.20
2022-12-23T03:45:36.960Z,214.05
2022-12-23T03:46:40.635Z,215.63
2022-12-23T03:47:55.541Z,209.05
2022-12-23T03:49:12.316Z,205.35
2022-12-23T03:50:23.228Z,185.44
2022-12-23T03:51:37.283Z,182.65
2022-12-23T03:52:50.033Z,187.40
2022-12-23T03:54:04.719Z,177.66
2022-12-23T03:55:19.439Z,178.65
2022-12-23T03:56:36.091Z,173.58
2022-12-23T03:57:48.381Z,166.00
2022-12-23T03:59:03.927Z,163.98
2022-12-23T04:00:12.303Z,165.79
2022-12-23T04:01:34.930Z,157.98
2022-12-23T04:02:54.150Z,155.62
2022-12-23T04:04:14.298Z,165.06
2022-12-23T04:05:30.559Z,167.41
2022-12-23T04:06:50.814Z,162.59
2022-12-23T04:08:04.115Z,159.41
2022-12-23T04:09:21.851Z,170.07
2022-12-23T04:10:30.942Z,191.11
2022-12-23T04:11:37.370Z,193.16
2022-12-23T04:12:44.784Z,232.80
2022-12-23T04:13:49.421Z,244.79
2022-12-23T04:14:55.820Z,238.54
2022-12-23T04:16:02.243Z,280.22
2022-12-23T04:17:08.338Z,272.46
2022-12-23T04:18:12.436Z,259.70
2022-12-23T04:19:21.137Z,274.09
2022-12-23T04:20:25.353Z,252.69
2022-12-23T04:21:32.186Z,237.98
2022-12-23T04:22:35.715Z,225.46
2022-12-23T04:23:41.657Z,206.70
2022-12-23T04:24:45.363Z,188.63
2022-12-23T04:25:51.396Z,175.13
2022-12-23T04:26:55.748Z,173.91
2022-12-23T04:28:01.907Z,163.51
2022-12-23T04:29:05.511Z,164.99
2022-12-23T04:30:16.283Z,158.72
2022-12-23T04:31:19.706Z,143.88
2022-12-23T04:32:26.979Z,146.72
2022-12-23T04:33:30.917Z,149.88
2022-12-23T04:34:39.998Z,137.88
2022-12-23T04:35:43.451Z,136.43
2022-12-23T04:36:49.414Z,136.31
2022-12-23T04:37:53.636Z,137.15
2022-12-23T04:38:59.732Z,128.30
2022-12-23T04:40:04.221Z,130.78
2022-12-23T04:41:10.345Z,128.57
2022-12-23T04:42:13.873Z,131.29
2022-12-23T04:43:20.845Z,123.64
2022-12-23T04:44:24.196Z,126.84
2022-12-23T04:45:30.186Z,128.58
2022-12-23T04:46:33.645Z,132.18
2022-12-23T04:47:40.849Z,128.23
2022-12-23T04:48:45.364Z,129.92
2022-12-23T04:49:53.962Z,137.25
2022-12-23T04:50:57.304Z,135.54
2022-12-23T04:52:03.720Z,135.31
2022-12-23T04:53:07.093Z,129.29
2022-12-23T04:54:13.898Z,132.79
2022-12-23T04:55:17.675Z,128.76
2022-12-23T04:56:23.695Z,123.24
2022-12-23T04:57:27.081Z,122.93
2022-12-23T04:58:33.130Z,112.45
2022-12-23T04:59:37.373Z,113.34
2022-12-23T05:00:43.445Z,112.42
2022-12-23T05:01:47.263Z,113.17
2022-12-23T05:02:53.570Z,111.78
2022-12-23T05:03:57.140Z,112.45
2022-12-23T05:05:07.156Z,118.59
2022-12-23T05:06:11.274Z,121.68
2022-12-23T05:07:17.335Z,124.95
2022-12-23T05:08:20.920Z,123.06
2022-12-23T05:09:27.240Z,137.20
2022-12-23T05:10:32.206Z,140.97
2022-12-23T05:11:42.111Z,135.60
2022-12-23T05:12:45.929Z,139.27
2022-12-23T05:13:51.890Z,154.70
2022-12-23T05:14:55.339Z,160.64
2022-12-23T05:16:02.747Z,174.34
2022-12-23T05:17:08.036Z,153.52
2022-12-23T05:18:14.623Z,139.35
2022-12-23T05:19:18.018Z,146.84
2022-12-23T05:20:26.596Z,145.98
2022-12-23T05:21:30.943Z,144.94
2022-12-23T05:22:36.891Z,140.87
2022-12-23T05:23:40.590Z,141.39
2022-12-23T05:24:47.167Z,150.35
2022-12-23T05:25:53.078Z,167.07
2022-12-23T05:27:00.652Z,148.36
2022-12-23T05:28:04.564Z,144.85
2022-12-23T05:29:10.567Z,163.71
2022-12-23T05:30:14.262Z,161.96
2022-12-23T05:31:20.641Z,168.07
2022-12-23T05:32:24.835Z,180.86
2022-12-23T05:33:31.676Z,172.79
2022-12-23T05:34:35.283Z,166.30
2022-12-23T05:35:44.051Z,155.16
2022-12-23T05:36:50.124Z,138.38
2022-12-23T05:37:54.761Z,139.44
2022-12-23T05:39:00.758Z,129.83
2022-12-23T05:40:05.223Z,145.48
2022-12-23T05:41:11.562Z,138.27
2022-12-23T05:42:19.519Z,148.40
2022-12-23T05:43:27.072Z,146.18
2022-12-23T05:44:30.608Z,162.20
2022-12-23T05:45:39.850Z,172.09
2022-12-23T05:46:43.346Z,161.30
2022-12-23T05:47:49.387Z,139.35
2022-12-23T05:48:53.606Z,140.43
2022-12-23T05:49:59.584Z,143.44
2022-12-23T05:51:06.183Z,159.40
2022-12-23T05:52:12.188Z,165.60
2022-12-23T05:53:15.649Z,152.94
2022-12-23T05:54:22.471Z,143.45
2022-12-23T05:55:27.472Z,149.72
2022-12-23T05:56:33.448Z,142.62
2022-12-23T05:57:36.814Z,135.02
2022-12-23T05:58:42.780Z,139.08
2022-12-23T05:59:46.926Z,135.89
2022-12-23T06:00:53.002Z,125.34
2022-12-23T06:01:59.117Z,122.24
2022-12-23T06:03:02.759Z,118.99
2022-12-23T06:04:09.119Z,122.39
2022-12-23T06:05:13.939Z,122.80
2022-12-23T06:06:22.528Z,131.35
2022-12-23T06:07:25.951Z,133.04
2022-12-23T06:08:34.268Z,144.24
2022-12-23T06:09:37.691Z,142.03
2022-12-23T06:10:44.551Z,150.68
2022-12-23T06:11:47.950Z,142.58
2022-12-23T06:12:53.998Z,145.19
2022-12-23T06:13:57.447Z,144.82
2022-12-23T06:15:03.588Z,142.75
2022-12-23T06:16:11.035Z,136.44
2022-12-23T06:17:14.566Z,134.29
2022-12-23T06:18:20.818Z,130.62
2022-12-23T06:19:24.294Z,142.23
2022-12-23T06:20:30.591Z,137.80
2022-12-23T06:21:37.484Z,139.59
2022-12-23T06:22:43.413Z,142.07
2022-12-23T06:23:49.410Z,145.34
2022-12-23T06:24:52.846Z,137.84
2022-12-23T06:26:02.915Z,142.85
2022-12-23T06:27:07.399Z,145.90
2022-12-23T06:28:13.393Z,147.85
2022-12-23T06:29:16.725Z,152.21
2022-12-23T06:30:23.226Z,148.72
2022-12-23T06:31:26.640Z,144.27
2022-12-23T06:32:38.220Z,154.43
2022-12-23T06:33:42.222Z,156.69
2022-12-23T06:34:49.880Z,160.37
2022-12-23T06:35:53.240Z,174.83
2022-12-23T06:37:02.075Z,168.94
2022-12-23T06:38:11.664Z,180.18
2022-12-23T06:39:18.138Z,178.31
2022-12-23T06:40:21.786Z,180.09
2022-12-23T06:41:27.735Z,181.04
2022-12-23T06:42:31.110Z,186.19
2022-12-23T06:43:37.922Z,184.51
2022-12-23T06:44:41.352Z,184.65
2022-12-23T06:45:50.632Z,179.23
2022-12-23T06:46:54.120Z,164.33
2022-12-23T06:48:00.128Z,160.53
2022-12-23T06:49:10.943Z,155.66
2022-12-23T06:50:19.279Z,157.96
2022-12-23T06:51:25.653Z,153.68
2022-12-23T06:52:31.726Z,153.40
2022-12-23T06:53:37.700Z,156.73
2022-12-23T06:54:42.023Z,163.37
2022-12-23T06:55:48.351Z,162.16
2022-12-23T06:56:51.796Z,159.71
2022-12-23T06:57:57.716Z,148.82
2022-12-23T06:59:01.267Z,151.68
2022-12-23T07:00:09.808Z,155.13
2022-12-23T07:01:13.258Z,164.44
2022-12-23T07:02:19.455Z,160.07
2022-12-23T07:03:23.356Z,153.94
2022-12-23T07:04:29.369Z,153.39
2022-12-23T07:05:37.395Z,161.56
2022-12-23T07:06:44.302Z,156.06
2022-12-23T07:07:50.407Z,145.43
2022-12-23T07:08:56.477Z,151.21
2022-12-23T07:10:00.188Z,145.80
2022-12-23T07:11:08.741Z,144.70
2022-12-23T07:12:12.195Z,147.71
2022-12-23T07:13:18.678Z,142.16
2022-12-23T07:14:22.108Z,141.23
2022-12-23T07:15:28.246Z,136.97
2022-12-23T07:16:32.746Z,133.96
2022-12-23T07:17:39.087Z,128.98
2022-12-23T07:18:42.651Z,131.49
2022-12-23T07:19:48.666Z,119.93
2022-12-23T07:20:55.385Z,118.83
2022-12-23T07:21:59.704Z,131.08
2022-12-23T07:23:08.507Z,143.53
2022-12-23T07:24:12.305Z,145.46
2022-12-23T07:25:18.771Z,155.40
2022-12-23T07:26:22.276Z,153.49
2022-12-23T07:27:29.116Z,156.87
2022-12-23T07:28:32.511Z,161.11
2022-12-23T07:29:38.512Z,156.81
2022-12-23T07:30:43.947Z,152.78
2022-12-23T07:31:50.014Z,156.14
2022-12-23T07:32:54.434Z,157.49
2022-12-23T07:34:00.535Z,149.22
2022-12-23T07:35:04.590Z,145.56
2022-12-23T07:36:11.805Z,142.06
2022-12-23T07:37:15.267Z,142.14
2022-12-23T07:38:24.853Z,135.55
2022-12-23T07:39:28.766Z,145.37
2022-12-23T07:40:34.807Z,153.16
2022-12-23T07:41:38.176Z,154.78
2022-12-23T07:42:46.852Z,159.25
2022-12-23T07:43:51.485Z,164.56
2022-12-23T07:44:57.446Z,164.05
2022-12-23T07:46:10.359Z,159.02
2022-12-23T07:47:15.713Z,181.08
2022-12-23T07:48:21.765Z,192.58
2022-12-23T07:49:26.059Z,204.16
2022-12-23T07:50:32.048Z,209.23
2022-12-23T07:51:35.437Z,209.88
2022-12-23T07:52:41.575Z,209.22
2022-12-23T07:53:52.960Z,206.38
2022-12-23T07:54:57.227Z,201.68
2022-12-23T07:56:03.254Z,190.20
2022-12-23T07:57:09.287Z,185.55
2022-12-23T07:58:15.275Z,171.81
2022-12-23T07:59:22.092Z,162.61
2022-12-23T08:00:26.588Z,157.50
2022-12-23T08:01:32.701Z,172.38
2022-12-23T08:02:36.535Z,176.69
2022-12-23T08:03:42.663Z,181.37
2022-12-23T08:04:46.733Z,171.52
2022-12-23T08:06:03.891Z,169.57
2022-12-23T08:07:09.920Z,178.22
2022-12-23T08:08:13.388Z,184.68
2022-12-23T08:09:22.052Z,189.03
2022-12-23T08:10:25.559Z,196.36
2022-12-23T08:11:32.592Z,206.27
2022-12-23T08:12:36.140Z,205.71
2022-12-23T08:13:44.975Z,215.89
2022-12-23T08:14:49.100Z,249.90
2022-12-23T08:15:59.162Z,228.62
2022-12-23T08:17:06.132Z,202.02
2022-12-23T08:18:12.231Z,202.89
2022-12-23T08:19:18.257Z,207.28
2022-12-23T08:20:24.312Z,203.52
2022-12-23T08:21:27.700Z,205.34
2022-12-23T08:22:34.934Z,197.31
2022-12-23T08:23:38.339Z,192.48
2022-12-23T08:24:47.190Z,193.41
2022-12-23T08:25:50.594Z,190.03
2022-12-23T08:26:57.438Z,196.58
2022-12-23T08:28:01.672Z,196.57
2022-12-23T08:29:09.902Z,218.21
2022-12-23T08:30:17.227Z,219.92
2022-12-23T08:31:24.195Z,217.97
2022-12-23T08:32:31.319Z,220.64
2022-12-23T08:33:36.962Z,229.59
2022-12-23T08:34:43.227Z,226.45
2022-12-23T08:35:46.663Z,216.56
2022-12-23T08:36:52.773Z,204.08
2022-12-23T08:37:56.182Z,203.57
2022-12-23T08:39:07.678Z,194.49
2022-12-23T08:40:16.754Z,203.51
2022-12-23T08:41:25.889Z,189.18
2022-12-23T08:42:31.965Z,195.47
2022-12-23T08:43:36.177Z,193.27
2022-12-23T08:44:43.248Z,179.04
2022-12-23T08:45:49.384Z,192.59
2022-12-23T08:46:52.886Z,180.86
2022-12-23T08:47:58.939Z,190.94
2022-12-23T08:49:05.392Z,194.63
2022-12-23T08:50:12.793Z,189.98
2022-12-23T08:51:19.325Z,189.98
2022-12-23T08:52:25.544Z,201.84
2022-12-23T08:53:29.389Z,193.50
2022-12-23T08:54:35.450Z,204.56
2022-12-23T08:55:45.611Z,200.32
2022-12-23T08:56:51.687Z,187.75
2022-12-23T08:57:55.413Z,201.84
2022-12-23T08:59:02.726Z,196.40
2022-12-23T09:00:08.623Z,207.46
2022-12-23T09:01:19.278Z,205.95
2022-12-23T09:02:25.527Z,190.87
2022-12-23T09:03:29.076Z,194.30
2022-12-23T09:04:35.207Z,195.18
2022-12-23T09:05:42.239Z,188.23
2022-12-23T09:06:49.320Z,187.78
2022-12-23T09:07:52.941Z,190.46
2022-12-23T09:08:59.536Z,184.60
2022-12-23T09:10:06.023Z,187.92
2022-12-23T09:11:19.557Z,195.28
2022-12-23T09:12:26.540Z,189.17
2022-12-23T09:13:35.935Z,180.73
2022-12-23T09:14:42.188Z,190.54
2022-12-23T09:15:46.306Z,182.88
2022-12-23T09:16:54.837Z,186.03
2022-12-23T09:17:59.058Z,194.43
2022-12-23T09:19:05.137Z,199.73
2022-12-23T09:20:11.039Z,194.92
2022-12-23T09:21:21.199Z,191.48
2022-12-23T09:22:27.325Z,196.23
2022-12-23T09:23:32.534Z,187.91
2022-12-23T09:24:38.775Z,177.32
2022-12-23T09:25:42.243Z,183.85
2022-12-23T09:26:51.081Z,189.05
2022-12-23T09:27:54.637Z,175.58
2022-12-23T09:29:01.799Z,178.56
2022-12-23T09:30:07.639Z,185.36
2022-12-23T09:31:16.598Z,205.29
2022-12-23T09:32:22.746Z,207.12
2022-12-23T09:33:26.453Z,190.12
2022-12-23T09:34:33.485Z,195.97
2022-12-23T09:36:02.345Z,200.76
2022-12-23T09:37:08.503Z,198.65
2022-12-23T09:38:12.099Z,193.69
2022-12-23T09:39:18.133Z,188.22
2022-12-23T09:40:26.232Z,178.96
2022-12-23T09:42:08.434Z,185.09
2022-12-23T09:43:32.887Z,182.96
2022-12-23T09:45:02.869Z,191.91
2022-12-23T09:46:22.065Z,209.24
2022-12-23T09:47:31.020Z,234.34
2022-12-23T09:48:46.305Z,221.65
2022-12-23T09:49:58.309Z,219.32
2022-12-23T09:51:09.792Z,211.00
2022-12-23T09:52:28.515Z,219.02
2022-12-23T09:53:53.475Z,209.45
2022-12-23T09:55:00.960Z,194.34
2022-12-23T09:56:22.076Z,192.32
2022-12-23T09:57:46.015Z,186.59
2022-12-23T09:59:06.339Z,187.92
2022-12-23T10:00:20.383Z,176.99
2022-12-23T10:01:44.617Z,182.53
2022-12-23T10:03:18.377Z,185.53
2022-12-23T10:04:45.878Z,175.80
2022-12-23T10:06:10.974Z,170.06
2022-12-23T10:07:38.191Z,178.80
2022-12-23T10:08:50.409Z,188.20
2022-12-23T10:10:01.796Z,180.22
2022-12-23T10:11:22.275Z,171.37
2022-12-23T10:12:42.076Z,161.47
2022-12-23T10:13:57.207Z,176.53
2022-12-23T10:15:21.985Z,169.04
2022-12-23T10:16:37.503Z,161.79
2022-12-23T10:17:43.889Z,200.58
2022-12-23T10:19:00.625Z,230.91
2022-12-23T10:20:14.759Z,214.75
2022-12-23T10:21:33.347Z,228.54
2022-12-23T10:22:44.547Z,228.23
2022-12-23T10:23:57.271Z,197.68
2022-12-23T10:25:13.411Z,194.30
2022-12-23T10:26:28.649Z,174.55
2022-12-23T10:27:41.543Z,152.58
2022-12-23T10:28:47.884Z,164.10
2022-12-23T10:29:52.284Z,164.99
2022-12-23T10:32:58.240Z,144.65
2022-12-23T10:34:18.191Z,146.10
2022-12-23T10:35:54.568Z,138.97
2022-12-23T10:37:14.440Z,135.42
2022-12-23T10:38:50.931Z,139.91
2022-12-23T10:40:19.012Z,144.11
2022-12-23T10:41:45.710Z,147.36
2022-12-23T10:43:23.033Z,143.40
2022-12-23T10:45:16.969Z,156.31
2022-12-23T10:46:43.760Z,155.16
2022-12-23T10:48:14.149Z,170.25
2022-12-23T10:49:42.480Z,151.14
2022-12-23T10:51:04.520Z,143.57
2022-12-23T10:52:20.048Z,148.42
2022-12-23T10:53:42.895Z,152.74
2022-12-23T10:54:52.191Z,152.36
2022-12-23T10:55:58.632Z,159.05
2022-12-23T10:57:05.980Z,162.58
2022-12-23T10:58:18.556Z,165.20
2022-12-23T10:59:31.396Z,159.81
2022-12-23T11:00:46.528Z,157.41
2022-12-23T11:02:04.405Z,161.01
2022-12-23T11:03:24.364Z,163.17
2022-12-23T11:04:39.148Z,171.99
2022-12-23T11:05:43.920Z,183.46
2022-12-23T11:07:26.350Z,185.78
2022-12-23T11:08:24.550Z,173.72
2022-12-23T11:09:42.919Z,187.92
2022-12-23T11:10:47.914Z,188.45
2022-12-23T11:12:02.071Z,187.36
2022-12-23T11:13:05.518Z,183.41
2022-12-23T11:14:35.126Z,188.38
2022-12-23T11:15:44.447Z,184.92
2022-12-23T11:16:47.941Z,209.07
2022-12-23T11:18:06.794Z,201.16
2022-12-23T11:19:19.676Z,214.75
2022-12-23T11:20:23.475Z,187.19
2022-12-23T11:21:33.525Z,190.07
2022-12-23T11:22:47.954Z,200.98
2022-12-23T11:24:17.027Z,191.15
2022-12-23T11:25:35.676Z,205.68
2022-12-23T11:26:44.190Z,212.15
2022-12-23T11:27:48.213Z,213.95
2022-12-23T11:29:07.931Z,217.31
2022-12-23T11:30:22.660Z,214.37
2022-12-23T11:31:36.658Z,225.16
2022-12-23T11:32:46.493Z,244.98
2022-12-23T11:33:59.052Z,273.13
2022-12-23T11:35:05.502Z,291.75
2022-12-23T11:36:25.450Z,313.13
2022-12-23T11:37:43.426Z,273.42
2022-12-23T11:38:57.360Z,227.27
2022-12-23T11:40:03.762Z,226.78
2022-12-23T11:41:11.452Z,226.16
2022-12-23T11:42:26.920Z,220.52
2022-12-23T11:43:34.283Z,221.98
2022-12-23T11:44:48.735Z,218.78
2022-12-23T11:46:20.736Z,211.73
2022-12-23T11:47:39.097Z,220.92
2022-12-23T11:48:48.592Z,202.07
2022-12-23T11:50:01.883Z,200.42
2022-12-23T11:51:08.635Z,213.11
2022-12-23T11:52:22.253Z,195.37
2022-12-23T11:53:27.823Z,207.18
2022-12-23T11:54:34.685Z,231.57
2022-12-23T11:56:03.178Z,226.66
2022-12-23T11:57:22.094Z,211.16
2022-12-23T11:58:30.985Z,222.35
2022-12-23T11:59:41.487Z,249.54
2022-12-23T12:01:00.281Z,258.04
2022-12-23T12:02:15.258Z,269.90
2022-12-23T12:03:27.581Z,252.05
2022-12-23T12:04:36.152Z,255.32
2022-12-23T12:05:51.610Z,273.76
2022-12-23T12:06:56.903Z,292.27
2022-12-23T12:08:09.790Z,309.24
2022-12-23T12:09:17.946Z,331.14
2022-12-23T12:10:30.669Z,332.90
2022-12-23T12:11:47.386Z,373.42
2022-12-23T12:13:00.512Z,320.45
2022-12-23T12:14:11.421Z,308.14
2022-12-23T12:15:38.835Z,261.44
2022-12-23T12:17:01.630Z,255.52
2022-12-23T12:18:16.400Z,279.65
2022-12-23T12:19:34.801Z,295.95
2022-12-23T12:20:48.689Z,312.01
2022-12-23T12:22:03.887Z,311.71
2022-12-23T12:23:21.372Z,327.81
2022-12-23T12:24:39.867Z,297.54
2022-12-23T12:25:53.864Z,303.09
2022-12-23T12:27:09.047Z,237.13
2022-12-23T12:28:21.539Z,248.08
2022-12-23T12:29:40.576Z,259.09
2022-12-23T12:30:58.755Z,226.24
2022-12-23T12:32:12.435Z,222.82
2022-12-23T12:33:31.203Z,192.17
2022-12-23T12:34:55.278Z,201.09
2022-12-23T12:36:17.029Z,225.05
2022-12-23T12:37:38.837Z,249.95
2022-12-23T12:38:54.805Z,230.80
2022-12-23T12:40:04.247Z,268.59
2022-12-23T12:41:25.749Z,245.99
2022-12-23T12:42:43.302Z,241.42
2022-12-23T12:44:04.273Z,233.02
2022-12-23T12:45:21.357Z,215.96
2022-12-23T12:46:40.680Z,217.20
2022-12-23T12:48:18.697Z,203.80
2022-12-23T12:49:39.108Z,233.21
2022-12-23T12:50:59.742Z,245.30
2022-12-23T12:52:16.133Z,236.42
2022-12-23T12:53:23.937Z,253.16
2022-12-23T12:54:40.504Z,240.56
2022-12-23T12:55:55.744Z,225.23
2022-12-23T12:57:04.271Z,261.23
2022-12-23T12:58:23.833Z,254.26
2022-12-23T12:59:35.086Z,241.92
2022-12-23T13:01:17.356Z,216.18
2022-12-23T13:03:05.651Z,226.32
2022-12-23T13:05:05.563Z,204.58
2022-12-23T13:06:30.733Z,194.36
2022-12-23T13:07:58.352Z,191.49
2022-12-23T13:09:25.113Z,193.10
2022-12-23T13:10:45.834Z,190.78
2022-12-23T13:12:07.776Z,164.29
2022-12-23T13:13:38.828Z,148.90
2022-12-23T13:15:05.904Z,157.72
2022-12-23T13:16:32.175Z,158.55
2022-12-23T13:17:58.814Z,164.17
2022-12-23T13:19:27.693Z,157.83
2022-12-23T13:20:41.567Z,149.03
2022-12-23T13:22:02.172Z,146.73
2022-12-23T13:23:42.233Z,166.86
2022-12-23T13:25:03.686Z,166.85
2022-12-23T13:26:31.471Z,165.14
2022-12-23T13:27:51.602Z,193.88
2022-12-23T13:29:34.107Z,215.63
2022-12-23T13:30:53.920Z,262.51
2022-12-23T13:32:20.103Z,280.66
2022-12-23T13:33:43.322Z,282.95
2022-12-23T13:35:04.916Z,297.54
2022-12-23T13:36:45.184Z,273.84
2022-12-23T13:38:05.688Z,304.37
2022-12-23T13:39:41.534Z,254.46
2022-12-23T13:41:08.517Z,276.14
2022-12-23T13:42:27.470Z,327.95
2022-12-23T13:43:47.072Z,345.31
2022-12-23T13:44:51.139Z,356.88
2022-12-23T13:46:06.793Z,281.13
2022-12-23T13:47:30.749Z,285.53
2022-12-23T13:48:53.531Z,329.24
2022-12-23T13:50:18.187Z,330.01
2022-12-23T13:51:42.719Z,253.67
2022-12-23T13:53:20.747Z,295.55
2022-12-23T13:54:46.625Z,257.57
2022-12-23T13:56:10.265Z,233.94
2022-12-23T13:57:43.262Z,245.41
2022-12-23T13:58:50.361Z,216.85
2022-12-23T14:00:25.801Z,241.25
2022-12-23T14:01:49.615Z,242.01
2022-12-23T14:03:25.684Z,218.20
2022-12-23T14:04:39.287Z,230.35
2022-12-23T14:05:51.099Z,261.47
2022-12-23T14:07:01.564Z,230.17
2022-12-23T14:08:25.452Z,221.81
2022-12-23T14:09:41.032Z,221.62
2022-12-23T14:10:54.973Z,255.70
2022-12-23T14:12:23.083Z,256.70
2022-12-23T14:13:41.912Z,238.88
2022-12-23T14:15:18.021Z,266.80
2022-12-23T14:16:52.553Z,279.72
2022-12-23T14:18:30.803Z,252.97
2022-12-23T14:20:13.174Z,254.80
2022-12-23T14:21:40.534Z,253.95
2022-12-23T14:23:08.562Z,237.71
2022-12-23T14:24:47.948Z,237.91
2022-12-23T14:26:29.211Z,230.51
2022-12-23T14:27:52.947Z,235.73
2022-12-23T14:29:37.847Z,247.23
2022-12-23T14:30:48.250Z,269.22
2022-12-23T14:31:58.626Z,265.10
2022-12-23T14:33:17.711Z,251.41
2022-12-23T14:34:34.374Z,245.94
2022-12-23T14:36:00.445Z,229.14
2022-12-23T14:37:40.045Z,248.18
2022-12-23T14:39:06.192Z,270.76
2022-12-23T14:40:53.702Z,287.87
2022-12-23T14:42:05.433Z,270.36
2022-12-23T14:43:56.057Z,271.63
2022-12-23T14:45:38.103Z,282.89
2022-12-23T14:47:00.506Z,290.45
2022-12-23T14:50:43.401Z,279.66
2022-12-23T14:51:51.063Z,249.10
2022-12-23T14:53:22.596Z,252.73
2022-12-23T14:55:00.104Z,224.38
2022-12-23T14:56:31.769Z,252.50
2022-12-23T14:57:36.684Z,270.27
2022-12-23T14:59:19.488Z,263.81
2022-12-23T15:00:23.100Z,238.06
2022-12-23T15:01:41.586Z,256.00
2022-12-23T15:02:45.402Z,258.21
2022-12-23T15:04:01.363Z,282.97
2022-12-23T15:05:09.736Z,278.29
2022-12-23T15:06:24.895Z,298.89
2022-12-23T15:07:38.298Z,294.74
2022-12-23T15:08:46.395Z,275.26
2022-12-23T15:10:01.371Z,278.11
2022-12-23T15:11:09.734Z,279.63